createdAt,value
2017-09-07T00:00:15.097Z,97443.91
2017-09-07T00:00:46.749Z,97436.66
2017-09-07T00:01:18.397Z,97438.38
2017-09-07T00:01:50.041Z,97436.22
2017-09-07T00:02:21.689Z,97434.08
2017-09-07T00:02:53.334Z,97437.50
2017-09-07T00:03:24.978Z,97440.47
2017-09-07T00:03:56.633Z,97432.74
2017-09-07T00:04:28.341Z,97442.50
2017-09-07T00:04:59.993Z,97436.98
2017-09-07T00:05:31.641Z,97437.84
2017-09-07T00:06:03.287Z,97438.70
2017-09-07T00:06:34.933Z,97441.28
2017-09-07T00:07:06.576Z,97444.31
2017-09-07T00:07:38.221Z,97446.05
2017-09-07T00:08:09.875Z,97434.96
2017-09-07T00:08:41.525Z,97438.80
2017-09-07T00:09:13.173Z,97436.72
2017-09-07T00:09:44.958Z,97441.33
2017-09-07T00:10:16.907Z,97434.08
2017-09-07T00:10:48.557Z,97439.58
2017-09-07T00:11:20.209Z,97438.30
2017-09-07T00:11:51.866Z,97441.78
2017-09-07T00:12:23.512Z,97440.55
2017-09-07T00:12:55.157Z,97443.91
2017-09-07T00:13:27.064Z,97442.21
2017-09-07T00:13:58.961Z,97449.45
2017-09-07T00:14:30.613Z,97448.17
2017-09-07T00:15:02.298Z,97446.38
2017-09-07T00:15:34.180Z,97449.38
2017-09-07T00:16:05.827Z,97448.96
2017-09-07T00:16:37.531Z,97445.92
2017-09-07T00:17:09.181Z,97450.53
2017-09-07T00:17:40.879Z,97447.97
2017-09-07T00:18:12.722Z,97454.35
2017-09-07T00:18:44.406Z,97451.20
2017-09-07T00:19:16.098Z,97446.05
2017-09-07T00:19:47.745Z,97454.08
2017-09-07T00:20:19.389Z,97451.53
2017-09-07T00:20:51.037Z,97452.33
2017-09-07T00:21:22.685Z,97449.30
2017-09-07T00:21:54.544Z,97447.66
2017-09-07T00:22:26.208Z,97449.80
2017-09-07T00:22:57.857Z,97451.62
2017-09-07T00:23:29.505Z,97445.83
2017-09-07T00:24:01.193Z,97448.91
2017-09-07T00:24:33.082Z,97446.03
2017-09-07T00:25:04.762Z,97449.94
2017-09-07T00:25:36.406Z,97444.85
2017-09-07T00:26:08.314Z,97445.77
2017-09-07T00:26:39.962Z,97444.06
2017-09-07T00:27:11.905Z,97443.57
2017-09-07T00:27:43.557Z,97439.39
2017-09-07T00:28:15.250Z,97445.34
2017-09-07T00:28:47.138Z,97440.64
2017-09-07T00:29:18.790Z,97435.91
2017-09-07T00:29:50.437Z,97440.57
2017-09-07T00:30:22.077Z,97437.99
2017-09-07T00:30:53.717Z,97441.00
2017-09-07T00:31:25.361Z,97432.89
2017-09-07T00:31:57.005Z,97436.66
2017-09-07T00:32:28.649Z,97438.45
2017-09-07T00:33:00.298Z,97435.86
2017-09-07T00:33:32.176Z,97428.97
2017-09-07T00:34:03.865Z,97443.84
2017-09-07T00:34:35.513Z,97432.03
2017-09-07T00:35:07.165Z,97432.32
2017-09-07T00:35:38.809Z,97439.21
2017-09-07T00:36:10.493Z,97437.09
2017-09-07T00:36:42.367Z,97434.94
2017-09-07T00:37:14.027Z,97431.22
2017-09-07T00:37:45.673Z,97432.14
2017-09-07T00:38:17.321Z,97432.61
2017-09-07T00:38:48.965Z,97433.09
2017-09-07T00:39:20.611Z,97432.66
2017-09-07T00:39:52.484Z,97434.38
2017-09-07T00:40:24.133Z,97434.30
2017-09-07T00:40:55.841Z,97429.66
2017-09-07T00:41:27.485Z,97431.73
2017-09-07T00:41:59.129Z,97427.56
2017-09-07T00:42:30.773Z,97433.08
2017-09-07T00:43:02.422Z,97433.08
2017-09-07T00:43:34.073Z,97433.52
2017-09-07T00:44:05.713Z,97434.03
2017-09-07T00:44:37.361Z,97426.83
2017-09-07T00:45:09.015Z,97429.06
2017-09-07T00:45:40.892Z,97432.46
2017-09-07T00:46:12.581Z,97432.46
2017-09-07T00:46:44.466Z,97422.66
2017-09-07T00:47:16.140Z,97426.05
2017-09-07T00:47:48.089Z,97428.48
2017-09-07T00:48:19.983Z,97428.84
2017-09-07T00:48:51.629Z,97439.39
2017-09-07T00:49:23.277Z,97427.88
2017-09-07T00:49:54.925Z,97433.00
2017-09-07T00:50:26.607Z,97434.81
2017-09-07T00:50:58.297Z,97429.39
2017-09-07T00:51:30.098Z,97431.95
2017-09-07T00:52:01.745Z,97431.91
2017-09-07T00:52:33.389Z,97432.80
2017-09-07T00:53:05.034Z,97430.19
2017-09-07T00:53:36.682Z,97433.19
2017-09-07T00:54:08.324Z,97431.09
2017-09-07T00:54:39.977Z,97431.93
2017-09-07T00:55:11.617Z,97431.00
2017-09-07T00:55:43.269Z,97425.45
2017-09-07T00:56:14.921Z,97434.41
2017-09-07T00:56:46.574Z,97427.91
2017-09-07T00:57:18.221Z,97428.73
2017-09-07T00:57:49.900Z,97427.84
2017-09-07T00:58:21.548Z,97428.20
2017-09-07T00:58:53.403Z,97428.22
2017-09-07T00:59:25.049Z,97429.82
2017-09-07T00:59:56.697Z,97429.39
2017-09-07T01:00:28.346Z,97432.81
2017-09-07T01:00:59.989Z,97425.99
2017-09-07T01:01:31.634Z,97425.92
2017-09-07T01:02:03.278Z,97428.06
2017-09-07T01:02:34.921Z,97424.20
2017-09-07T01:03:06.561Z,97420.85
2017-09-07T01:03:38.203Z,97428.53
2017-09-07T01:04:09.911Z,97428.02
2017-09-07T01:04:41.860Z,97428.02
2017-09-07T01:05:13.735Z,97425.02
2017-09-07T01:05:45.385Z,97433.13
2017-09-07T01:06:17.029Z,97423.65
2017-09-07T01:06:48.677Z,97423.30
2017-09-07T01:07:20.325Z,97428.42
2017-09-07T01:07:51.968Z,97420.27
2017-09-07T01:08:23.613Z,97423.16
2017-09-07T01:08:55.265Z,97429.11
2017-09-07T01:09:26.954Z,97426.95
2017-09-07T01:09:58.602Z,97421.85
2017-09-07T01:10:30.245Z,97416.30
2017-09-07T01:11:01.889Z,97424.39
2017-09-07T01:11:33.819Z,97426.79
2017-09-07T01:12:05.714Z,97429.40
2017-09-07T01:12:37.363Z,97423.91
2017-09-07T01:13:09.013Z,97420.02
2017-09-07T01:13:40.694Z,97417.06
2017-09-07T01:14:12.365Z,97419.20
2017-09-07T01:14:44.016Z,97422.27
2017-09-07T01:15:15.905Z,97420.53
2017-09-07T01:15:47.565Z,97420.92
2017-09-07T01:16:19.403Z,97426.79
2017-09-07T01:16:51.159Z,97412.80
2017-09-07T01:17:22.862Z,97415.36
2017-09-07T01:17:54.753Z,97419.18
2017-09-07T01:18:26.401Z,97419.48
2017-09-07T01:18:58.045Z,97425.91
2017-09-07T01:19:29.689Z,97418.63
2017-09-07T01:20:01.334Z,97422.83
2017-09-07T01:20:32.982Z,97422.81
2017-09-07T01:21:04.629Z,97424.52
2017-09-07T01:21:36.270Z,97420.27
2017-09-07T01:22:08.194Z,97426.67
2017-09-07T01:22:40.085Z,97422.05
2017-09-07T01:23:11.737Z,97423.84
2017-09-07T01:23:43.381Z,97429.73
2017-09-07T01:24:15.024Z,97420.27
2017-09-07T01:24:46.709Z,97426.09
2017-09-07T01:25:18.361Z,97425.16
2017-09-07T01:25:50.013Z,97431.59
2017-09-07T01:26:21.657Z,97427.09
2017-09-07T01:26:53.581Z,97437.76
2017-09-07T01:27:25.535Z,97432.22
2017-09-07T01:27:57.422Z,97427.63
2017-09-07T01:28:29.230Z,97432.31
2017-09-07T01:29:00.877Z,97432.33
2017-09-07T01:29:32.520Z,97434.20
2017-09-07T01:30:04.165Z,97433.27
2017-09-07T01:30:35.808Z,97436.02
2017-09-07T01:31:07.457Z,97431.70
2017-09-07T01:31:39.105Z,97433.41
2017-09-07T01:32:10.749Z,97436.34
2017-09-07T01:32:42.397Z,97434.24
2017-09-07T01:33:14.045Z,97429.22
2017-09-07T01:33:45.697Z,97432.98
2017-09-07T01:34:17.341Z,97433.03
2017-09-07T01:34:49.134Z,97430.84
2017-09-07T01:35:20.971Z,97432.52
2017-09-07T01:35:52.725Z,97429.09
2017-09-07T01:36:24.675Z,97429.42
2017-09-07T01:36:56.329Z,97431.64
2017-09-07T01:37:27.974Z,97435.90
2017-09-07T01:37:59.621Z,97432.45
2017-09-07T01:38:31.309Z,97438.46
2017-09-07T01:39:02.968Z,97435.84
2017-09-07T01:39:34.833Z,97431.64
2017-09-07T01:40:06.529Z,97431.66
2017-09-07T01:40:38.176Z,97432.54
2017-09-07T01:41:09.972Z,97435.52
2017-09-07T01:41:41.637Z,97430.49
2017-09-07T01:42:13.277Z,97438.59
2017-09-07T01:42:44.922Z,97433.52
2017-09-07T01:43:16.586Z,97438.20
2017-09-07T01:43:48.533Z,97432.70
2017-09-07T01:44:20.233Z,97437.24
2017-09-07T01:44:51.873Z,97431.27
2017-09-07T01:45:23.513Z,97436.88
2017-09-07T01:45:55.174Z,97436.02
2017-09-07T01:46:26.816Z,97428.89
2017-09-07T01:46:58.469Z,97416.16
2017-09-07T01:47:30.337Z,97426.19
2017-09-07T01:48:01.987Z,97437.31
2017-09-07T01:48:33.666Z,97430.42
2017-09-07T01:49:05.633Z,97430.03
2017-09-07T01:49:37.281Z,97423.23
2017-09-07T01:50:08.929Z,97433.94
2017-09-07T01:50:40.597Z,97432.20
2017-09-07T01:51:12.305Z,97434.24
2017-09-07T01:51:44.061Z,97440.11
2017-09-07T01:52:15.708Z,97436.38
2017-09-07T01:52:47.416Z,97437.73
2017-09-07T01:53:19.280Z,97431.34
2017-09-07T01:53:50.929Z,97430.89
2017-09-07T01:54:22.573Z,97433.05
2017-09-07T01:54:54.223Z,97431.36
2017-09-07T01:55:25.874Z,97435.55
2017-09-07T01:55:57.517Z,97427.38
2017-09-07T01:56:29.218Z,97429.83
2017-09-07T01:57:01.059Z,97429.45
2017-09-07T01:57:32.709Z,97431.38
2017-09-07T01:58:04.352Z,97431.43
2017-09-07T01:58:35.997Z,97434.80
2017-09-07T01:59:07.645Z,97426.25
2017-09-07T01:59:39.285Z,97431.45
2017-09-07T02:00:10.929Z,97428.12
2017-09-07T02:00:42.578Z,97433.69
2017-09-07T02:01:14.229Z,97430.40
2017-09-07T02:01:45.944Z,97428.26
2017-09-07T02:02:17.593Z,97430.82
2017-09-07T02:02:49.233Z,97427.82
2017-09-07T02:03:20.877Z,97424.52
2017-09-07T02:03:52.517Z,97432.66
2017-09-07T02:04:24.209Z,97428.05
2017-09-07T02:04:55.853Z,97428.96
2017-09-07T02:05:27.497Z,97426.44
2017-09-07T02:05:59.385Z,97429.98
2017-09-07T02:06:31.042Z,97434.20
2017-09-07T02:07:02.685Z,97430.27
2017-09-07T02:07:34.329Z,97426.44
2017-09-07T02:08:05.973Z,97436.24
2017-09-07T02:08:37.674Z,97424.72
2017-09-07T02:09:09.544Z,97428.47
2017-09-07T02:09:41.193Z,97427.20
2017-09-07T02:10:12.833Z,97430.30
2017-09-07T02:10:44.480Z,97431.66
2017-09-07T02:11:16.124Z,97425.70
2017-09-07T02:11:47.776Z,97430.19
2017-09-07T02:12:19.426Z,97428.39
2017-09-07T02:12:51.069Z,97427.08
2017-09-07T02:13:22.717Z,97422.39
2017-09-07T02:13:54.609Z,97434.31
2017-09-07T02:14:26.271Z,97428.45
2017-09-07T02:14:57.914Z,97430.59
2017-09-07T02:15:29.863Z,97436.50
2017-09-07T02:16:01.810Z,97437.83
2017-09-07T02:16:33.464Z,97434.80
2017-09-07T02:17:05.116Z,97431.84
2017-09-07T02:17:36.761Z,97429.77
2017-09-07T02:18:08.404Z,97431.91
2017-09-07T02:18:40.049Z,97434.47
2017-09-07T02:19:11.919Z,97431.98
2017-09-07T02:19:43.561Z,97440.94
2017-09-07T02:20:15.253Z,97439.57
2017-09-07T02:20:46.961Z,97434.84
2017-09-07T02:21:18.839Z,97439.53
2017-09-07T02:21:50.497Z,97433.57
2017-09-07T02:22:22.144Z,97436.98
2017-09-07T02:22:53.793Z,97434.42
2017-09-07T02:23:25.440Z,97436.56
2017-09-07T02:23:57.081Z,97432.33
2017-09-07T02:24:28.725Z,97430.09
2017-09-07T02:25:00.368Z,97434.36
2017-09-07T02:25:32.014Z,97434.84
2017-09-07T02:26:03.928Z,97436.55
2017-09-07T02:26:35.887Z,97438.29
2017-09-07T02:27:07.541Z,97431.03
2017-09-07T02:27:39.190Z,97434.03
2017-09-07T02:28:11.018Z,97439.13
2017-09-07T02:28:42.682Z,97431.89
2017-09-07T02:29:14.325Z,97439.57
2017-09-07T02:29:45.970Z,97436.97
2017-09-07T02:30:17.614Z,97433.08
2017-09-07T02:30:49.258Z,97436.08
2017-09-07T02:31:20.974Z,97437.43
2017-09-07T02:31:52.625Z,97440.31
2017-09-07T02:32:24.269Z,97439.38
2017-09-07T02:32:55.914Z,97439.38
2017-09-07T02:33:27.562Z,97440.73
2017-09-07T02:33:59.213Z,97443.70
2017-09-07T02:34:30.853Z,97437.73
2017-09-07T02:35:02.496Z,97436.88
2017-09-07T02:35:34.137Z,97437.73
2017-09-07T02:36:05.785Z,97442.37
2017-09-07T02:36:37.671Z,97437.64
2017-09-07T02:37:09.530Z,97437.72
2017-09-07T02:37:41.280Z,97436.88
2017-09-07T02:38:12.928Z,97438.17
2017-09-07T02:38:44.574Z,97440.30
2017-09-07T02:39:16.229Z,97432.63
2017-09-07T02:39:48.153Z,97439.03
2017-09-07T02:40:19.995Z,97430.08
2017-09-07T02:40:51.744Z,97440.31
2017-09-07T02:41:23.694Z,97437.73
2017-09-07T02:41:55.579Z,97434.34
2017-09-07T02:42:27.226Z,97436.50
2017-09-07T02:42:59.151Z,97436.55
2017-09-07T02:43:30.801Z,97437.73
2017-09-07T02:44:02.445Z,97442.00
2017-09-07T02:44:34.085Z,97444.91
2017-09-07T02:45:05.732Z,97441.05
2017-09-07T02:45:37.378Z,97443.11
2017-09-07T02:46:09.022Z,97439.65
2017-09-07T02:46:40.674Z,97441.73
2017-09-07T02:47:12.325Z,97442.91
2017-09-07T02:47:44.011Z,97447.07
2017-09-07T02:48:15.960Z,97446.61
2017-09-07T02:48:47.610Z,97444.91
2017-09-07T02:49:19.253Z,97439.34
2017-09-07T02:49:51.299Z,97442.75
2017-09-07T02:50:22.954Z,97443.95
2017-09-07T02:50:54.597Z,97447.00
2017-09-07T02:51:26.248Z,97446.61
2017-09-07T02:51:57.893Z,97444.89
2017-09-07T02:52:29.710Z,97446.11
2017-09-07T02:53:01.661Z,97444.39
2017-09-07T02:53:33.313Z,97442.63
2017-09-07T02:54:04.958Z,97445.63
2017-09-07T02:54:36.602Z,97441.73
2017-09-07T02:55:08.249Z,97447.26
2017-09-07T02:55:39.889Z,97443.39
2017-09-07T02:56:11.537Z,97444.58
2017-09-07T02:56:43.187Z,97445.88
2017-09-07T02:57:14.833Z,97449.21
2017-09-07T02:57:46.744Z,97444.14
2017-09-07T02:58:18.440Z,97447.98
2017-09-07T02:58:50.086Z,97456.51
2017-09-07T02:59:21.732Z,97449.69
2017-09-07T02:59:53.421Z,97443.28
2017-09-07T03:00:25.065Z,97444.51
2017-09-07T03:00:56.709Z,97441.46
2017-09-07T03:01:28.435Z,97436.61
2017-09-07T03:02:00.217Z,97440.08
2017-09-07T03:02:31.866Z,97437.42
2017-09-07T03:03:03.513Z,97437.42
2017-09-07T03:03:35.391Z,97440.33
2017-09-07T03:04:07.930Z,97440.73
2017-09-07T03:04:39.645Z,97439.80
2017-09-07T03:05:11.286Z,97437.22
2017-09-07T03:05:42.950Z,97435.48
2017-09-07T03:06:14.601Z,97437.46
2017-09-07T03:06:46.499Z,97440.50
2017-09-07T03:07:18.448Z,97444.77
2017-09-07T03:07:50.098Z,97437.30
2017-09-07T03:08:21.741Z,97442.75
2017-09-07T03:08:53.389Z,97445.33
2017-09-07T03:09:25.035Z,97442.34
2017-09-07T03:09:56.964Z,97439.36
2017-09-07T03:10:28.617Z,97446.19
2017-09-07T03:11:00.268Z,97443.19
2017-09-07T03:11:31.909Z,97436.02
2017-09-07T03:12:03.553Z,97441.92
2017-09-07T03:12:35.201Z,97439.78
2017-09-07T03:13:06.845Z,97437.22
2017-09-07T03:13:38.490Z,97437.64
2017-09-07T03:14:10.137Z,97443.28
2017-09-07T03:14:41.940Z,97444.12
2017-09-07T03:15:13.629Z,97446.59
2017-09-07T03:15:45.281Z,97446.56
2017-09-07T03:16:17.236Z,97443.48
2017-09-07T03:16:48.881Z,97440.16
2017-09-07T03:17:20.533Z,97447.37
2017-09-07T03:17:52.207Z,97443.51
2017-09-07T03:18:23.888Z,97447.75
2017-09-07T03:18:55.541Z,97445.13
2017-09-07T03:19:27.189Z,97443.85
2017-09-07T03:19:58.832Z,97443.48
2017-09-07T03:20:30.486Z,97445.93
2017-09-07T03:21:02.133Z,97443.70
2017-09-07T03:21:34.009Z,97441.97
2017-09-07T03:22:05.696Z,97442.41
2017-09-07T03:22:37.349Z,97444.05
2017-09-07T03:23:08.994Z,97444.47
2017-09-07T03:23:40.638Z,97444.47
2017-09-07T03:24:12.526Z,97444.53
2017-09-07T03:24:44.404Z,97439.84
2017-09-07T03:25:16.055Z,97440.30
2017-09-07T03:25:47.697Z,97438.56
2017-09-07T03:26:19.344Z,97444.02
2017-09-07T03:26:51.272Z,97441.98
2017-09-07T03:27:22.991Z,97439.34
2017-09-07T03:27:54.641Z,97445.39
2017-09-07T03:28:26.289Z,97440.56
2017-09-07T03:28:57.934Z,97437.14
2017-09-07T03:29:29.597Z,97445.67
2017-09-07T03:30:01.246Z,97451.28
2017-09-07T03:30:32.904Z,97443.61
2017-09-07T03:31:04.734Z,97443.17
2017-09-07T03:31:36.696Z,97444.41
2017-09-07T03:32:08.382Z,97449.11
2017-09-07T03:32:40.085Z,97445.25
2017-09-07T03:33:11.930Z,97441.30
2017-09-07T03:33:43.615Z,97445.55
2017-09-07T03:34:15.269Z,97443.84
2017-09-07T03:34:46.916Z,97444.28
2017-09-07T03:35:18.565Z,97443.30
2017-09-07T03:35:50.213Z,97441.26
2017-09-07T03:36:21.857Z,97445.00
2017-09-07T03:36:53.513Z,97439.95
2017-09-07T03:37:25.415Z,97443.80
2017-09-07T03:37:57.118Z,97441.18
2017-09-07T03:38:29.006Z,97442.13
2017-09-07T03:39:00.663Z,97438.67
2017-09-07T03:39:32.325Z,97443.72
2017-09-07T03:40:03.978Z,97440.84
2017-09-07T03:40:35.630Z,97437.88
2017-09-07T03:41:07.289Z,97434.45
2017-09-07T03:41:39.130Z,97445.10
2017-09-07T03:42:10.805Z,97442.58
2017-09-07T03:42:42.756Z,97444.77
2017-09-07T03:43:14.449Z,97441.89
2017-09-07T03:43:46.093Z,97448.30
2017-09-07T03:44:17.989Z,97439.00
2017-09-07T03:44:49.871Z,97440.30
2017-09-07T03:45:21.595Z,97436.00
2017-09-07T03:45:53.276Z,97445.76
2017-09-07T03:46:25.018Z,97438.14
2017-09-07T03:46:56.714Z,97438.98
2017-09-07T03:47:28.381Z,97432.99
2017-09-07T03:48:00.032Z,97436.47
2017-09-07T03:48:31.918Z,97434.32
2017-09-07T03:49:04.924Z,97430.02
2017-09-07T03:49:37.792Z,97437.23
2017-09-07T03:50:09.568Z,97429.15
2017-09-07T03:50:41.270Z,97435.60
2017-09-07T03:51:12.969Z,97436.44
2017-09-07T03:51:44.621Z,97436.31
2017-09-07T03:52:16.279Z,97432.06
2017-09-07T03:52:47.925Z,97440.16
2017-09-07T03:53:19.569Z,97432.59
2017-09-07T03:53:51.226Z,97437.64
2017-09-07T03:54:22.873Z,97434.20
2017-09-07T03:54:54.569Z,97435.41
2017-09-07T03:55:26.213Z,97436.16
2017-09-07T03:55:58.104Z,97434.09
2017-09-07T03:56:29.754Z,97430.69
2017-09-07T03:57:01.402Z,97431.17
2017-09-07T03:57:33.337Z,97433.72
2017-09-07T03:58:05.288Z,97431.15
2017-09-07T03:58:36.937Z,97437.14
2017-09-07T03:59:08.589Z,97435.02
2017-09-07T03:59:40.241Z,97434.13
2017-09-07T04:00:11.934Z,97436.27
2017-09-07T04:00:43.803Z,97438.84
2017-09-07T04:01:15.723Z,97438.02
2017-09-07T04:01:47.391Z,97439.41
2017-09-07T04:02:19.270Z,97436.52
2017-09-07T04:02:50.985Z,97435.36
2017-09-07T04:03:22.816Z,97433.58
2017-09-07T04:03:54.514Z,97438.73
2017-09-07T04:04:26.220Z,97442.57
2017-09-07T04:04:57.882Z,97437.38
2017-09-07T04:05:29.811Z,97439.55
2017-09-07T04:06:01.467Z,97434.39
2017-09-07T04:06:34.323Z,97432.37
2017-09-07T04:07:06.297Z,97435.81
2017-09-07T04:07:37.961Z,97438.45
2017-09-07T04:08:09.613Z,97438.08
2017-09-07T04:08:41.262Z,97441.13
2017-09-07T04:09:12.909Z,97438.63
2017-09-07T04:09:44.699Z,97433.97
2017-09-07T04:10:16.389Z,97433.08
2017-09-07T04:10:48.071Z,97433.97
2017-09-07T04:11:19.760Z,97431.87
2017-09-07T04:11:51.662Z,97429.06
2017-09-07T04:12:23.398Z,97435.07
2017-09-07T04:12:55.516Z,97426.56
2017-09-07T04:13:27.202Z,97435.16
2017-09-07T04:13:58.901Z,97428.34
2017-09-07T04:14:30.545Z,97422.45
2017-09-07T04:15:02.195Z,97428.46
2017-09-07T04:15:34.077Z,97427.16
2017-09-07T04:16:05.735Z,97430.68
2017-09-07T04:16:37.559Z,97427.20
2017-09-07T04:17:09.310Z,97424.27
2017-09-07T04:17:41.073Z,97410.20
2017-09-07T04:18:12.783Z,97424.75
2017-09-07T04:18:44.543Z,97439.36
2017-09-07T04:19:16.402Z,97430.81
2017-09-07T04:19:48.059Z,97434.66
2017-09-07T04:20:19.701Z,97440.30
2017-09-07T04:20:51.728Z,97436.41
2017-09-07T04:21:24.494Z,97438.62
2017-09-07T04:21:56.157Z,97437.83
2017-09-07T04:22:27.801Z,97435.71
2017-09-07T04:22:59.588Z,97436.16
2017-09-07T04:23:31.471Z,97439.13
2017-09-07T04:24:03.122Z,97442.55
2017-09-07T04:24:34.769Z,97431.43
2017-09-07T04:25:06.417Z,97433.13
2017-09-07T04:25:38.061Z,97438.62
2017-09-07T04:26:09.954Z,97442.02
2017-09-07T04:26:41.629Z,97437.73
2017-09-07T04:27:13.577Z,97432.95
2017-09-07T04:27:45.470Z,97435.08
2017-09-07T04:28:17.119Z,97429.46
2017-09-07T04:28:48.772Z,97428.98
2017-09-07T04:29:20.453Z,97419.15
2017-09-07T04:29:52.099Z,97431.86
2017-09-07T04:30:23.750Z,97427.95
2017-09-07T04:30:55.445Z,97428.78
2017-09-07T04:31:27.330Z,97433.89
2017-09-07T04:31:58.979Z,97433.91
2017-09-07T04:32:30.624Z,97437.77
2017-09-07T04:33:02.449Z,97439.47
2017-09-07T04:33:34.202Z,97439.37
2017-09-07T04:34:06.078Z,97439.85
2017-09-07T04:34:37.725Z,97442.85
2017-09-07T04:35:09.374Z,97442.76
2017-09-07T04:35:41.017Z,97441.50
2017-09-07T04:36:12.723Z,97432.92
2017-09-07T04:36:44.373Z,97441.72
2017-09-07T04:37:16.022Z,97440.40
2017-09-07T04:37:47.665Z,97443.41
2017-09-07T04:38:19.373Z,97444.28
2017-09-07T04:38:51.021Z,97439.95
2017-09-07T04:39:22.863Z,97436.55
2017-09-07T04:39:54.509Z,97445.08
2017-09-07T04:40:26.434Z,97443.70
2017-09-07T04:40:58.309Z,97441.23
2017-09-07T04:41:30.060Z,97436.06
2017-09-07T04:42:01.979Z,97441.51
2017-09-07T04:42:33.650Z,97443.53
2017-09-07T04:43:05.600Z,97439.20
2017-09-07T04:43:37.551Z,97439.14
2017-09-07T04:44:09.498Z,97444.34
2017-09-07T04:44:41.448Z,97441.39
2017-09-07T04:45:13.304Z,97447.23
2017-09-07T04:45:44.957Z,97445.95
2017-09-07T04:46:16.605Z,97444.25
2017-09-07T04:46:48.252Z,97443.29
2017-09-07T04:47:19.896Z,97439.52
2017-09-07T04:47:51.541Z,97439.96
2017-09-07T04:48:23.246Z,97435.67
2017-09-07T04:48:54.889Z,97441.07
2017-09-07T04:49:26.838Z,97440.70
2017-09-07T04:49:58.542Z,97445.33
2017-09-07T04:50:30.186Z,97441.49
2017-09-07T04:51:02.029Z,97444.89
2017-09-07T04:51:33.713Z,97441.47
2017-09-07T04:52:05.550Z,97439.41
2017-09-07T04:52:37.304Z,97439.30
2017-09-07T04:53:08.953Z,97442.24
2017-09-07T04:53:40.601Z,97442.66
2017-09-07T04:54:12.250Z,97440.95
2017-09-07T04:54:43.893Z,97442.64
2017-09-07T04:55:15.541Z,97446.92
2017-09-07T04:55:47.189Z,97446.92
2017-09-07T04:56:19.104Z,97444.27
2017-09-07T04:56:50.991Z,97438.74
2017-09-07T04:57:22.698Z,97443.00
2017-09-07T04:57:54.349Z,97443.82
2017-09-07T04:58:25.993Z,97448.09
2017-09-07T04:58:57.637Z,97453.16
2017-09-07T04:59:29.282Z,97450.70
2017-09-07T05:00:01.520Z,97449.79
2017-09-07T05:00:33.169Z,97448.43
2017-09-07T05:01:04.821Z,97451.86
2017-09-07T05:01:36.754Z,97455.70
2017-09-07T05:02:08.449Z,97447.64
2017-09-07T05:02:40.097Z,97456.98
2017-09-07T05:03:11.937Z,97447.64
2017-09-07T05:03:43.592Z,97450.65
2017-09-07T05:04:15.266Z,97454.08
2017-09-07T05:04:47.138Z,97447.22
2017-09-07T05:05:18.781Z,97444.56
2017-09-07T05:05:50.425Z,97452.17
2017-09-07T05:06:22.073Z,97446.19
2017-09-07T05:06:53.717Z,97453.44
2017-09-07T05:07:25.361Z,97443.62
2017-09-07T05:07:57.005Z,97452.58
2017-09-07T05:08:28.711Z,97448.28
2017-09-07T05:09:00.361Z,97448.73
2017-09-07T05:09:32.005Z,97452.55
2017-09-07T05:10:03.649Z,97449.94
2017-09-07T05:10:35.587Z,97452.12
2017-09-07T05:11:07.237Z,97448.33
2017-09-07T05:11:38.882Z,97445.33
2017-09-07T05:12:10.712Z,97449.98
2017-09-07T05:12:42.369Z,97452.33
2017-09-07T05:13:14.014Z,97447.63
2017-09-07T05:13:45.657Z,97455.78
2017-09-07T05:14:17.301Z,97460.83
2017-09-07T05:14:48.950Z,97456.17
2017-09-07T05:15:20.642Z,97448.95
2017-09-07T05:15:52.313Z,97454.47
2017-09-07T05:16:23.964Z,97452.27
2017-09-07T05:16:55.609Z,97459.60
2017-09-07T05:17:27.253Z,97452.45
2017-09-07T05:17:59.101Z,97454.47
2017-09-07T05:18:30.745Z,97452.80
2017-09-07T05:19:02.474Z,97449.52
2017-09-07T05:19:34.129Z,97456.24
2017-09-07T05:20:05.781Z,97450.73
2017-09-07T05:20:37.429Z,97447.22
2017-09-07T05:21:09.073Z,97454.17
2017-09-07T05:21:40.713Z,97448.66
2017-09-07T05:22:12.368Z,97450.84
2017-09-07T05:22:44.013Z,97448.77
2017-09-07T05:23:15.669Z,97450.47
2017-09-07T05:23:47.319Z,97450.43
2017-09-07T05:24:19.029Z,97453.34
2017-09-07T05:24:50.673Z,97449.94
2017-09-07T05:25:22.321Z,97449.91
2017-09-07T05:25:53.966Z,97450.73
2017-09-07T05:26:25.618Z,97448.20
2017-09-07T05:26:57.264Z,97455.45
2017-09-07T05:27:28.908Z,97446.05
2017-09-07T05:28:00.693Z,97444.80
2017-09-07T05:28:32.342Z,97453.83
2017-09-07T05:29:03.993Z,97445.34
2017-09-07T05:29:35.640Z,97449.61
2017-09-07T05:30:07.281Z,97448.28
2017-09-07T05:30:38.925Z,97448.73
2017-09-07T05:31:10.568Z,97448.28
2017-09-07T05:31:42.213Z,97449.07
2017-09-07T05:32:13.861Z,97447.84
2017-09-07T05:32:45.508Z,97447.86
2017-09-07T05:33:17.149Z,97450.01
2017-09-07T05:33:48.797Z,97452.59
2017-09-07T05:34:20.441Z,97449.61
2017-09-07T05:34:52.328Z,97447.48
2017-09-07T05:35:24.292Z,97448.31
2017-09-07T05:35:55.977Z,97446.58
2017-09-07T05:36:27.620Z,97448.75
2017-09-07T05:36:59.268Z,97449.89
2017-09-07T05:37:30.917Z,97461.52
2017-09-07T05:38:02.615Z,97449.15
2017-09-07T05:38:34.450Z,97453.90
2017-09-07T05:39:06.315Z,97456.08
2017-09-07T05:39:37.965Z,97451.39
2017-09-07T05:40:09.609Z,97450.45
2017-09-07T05:40:41.253Z,97453.83
2017-09-07T05:41:12.902Z,97451.31
2017-09-07T05:41:44.551Z,97452.59
2017-09-07T05:42:16.193Z,97451.63
2017-09-07T05:42:47.837Z,97456.81
2017-09-07T05:43:19.493Z,97455.58
2017-09-07T05:43:51.185Z,97451.83
2017-09-07T05:44:22.835Z,97454.80
2017-09-07T05:44:54.478Z,97453.88
2017-09-07T05:45:26.301Z,97453.86
2017-09-07T05:45:57.958Z,97457.26
2017-09-07T05:46:29.609Z,97456.00
2017-09-07T05:47:01.254Z,97449.94
2017-09-07T05:47:32.898Z,97454.70
2017-09-07T05:48:04.619Z,97456.39
2017-09-07T05:48:36.389Z,97450.80
2017-09-07T05:49:08.037Z,97454.64
2017-09-07T05:49:39.852Z,97452.08
2017-09-07T05:50:11.502Z,97452.55
2017-09-07T05:50:43.149Z,97453.90
2017-09-07T05:51:14.803Z,97446.31
2017-09-07T05:51:46.449Z,97453.63
2017-09-07T05:52:18.101Z,97450.55
2017-09-07T05:52:49.749Z,97442.84
2017-09-07T05:53:21.653Z,97452.62
2017-09-07T05:53:53.521Z,97451.88
2017-09-07T05:54:25.167Z,97451.09
2017-09-07T05:54:56.814Z,97452.77
2017-09-07T05:55:28.472Z,97447.25
2017-09-07T05:56:00.145Z,97445.64
2017-09-07T05:56:31.812Z,97451.21
2017-09-07T05:57:03.466Z,97447.41
2017-09-07T05:57:35.113Z,97452.58
2017-09-07T05:58:06.753Z,97449.59
2017-09-07T05:58:38.405Z,97452.56
2017-09-07T05:59:10.089Z,97452.14
2017-09-07T05:59:41.930Z,97450.84
2017-09-07T06:00:13.626Z,97452.49
2017-09-07T06:00:45.275Z,97448.63
2017-09-07T06:01:16.917Z,97447.79
2017-09-07T06:01:48.562Z,97445.63
2017-09-07T06:02:20.487Z,97447.37
2017-09-07T06:02:52.139Z,97454.64
2017-09-07T06:03:23.781Z,97450.33
2017-09-07T06:03:55.434Z,97453.82
2017-09-07T06:04:27.081Z,97460.20
2017-09-07T06:04:58.915Z,97457.20
2017-09-07T06:05:30.560Z,97455.50
2017-09-07T06:06:02.210Z,97447.69
2017-09-07T06:06:33.929Z,97452.35
2017-09-07T06:07:05.577Z,97454.08
2017-09-07T06:07:37.521Z,97448.97
2017-09-07T06:08:09.169Z,97458.34
2017-09-07T06:08:40.813Z,97456.54
2017-09-07T06:09:12.457Z,97451.88
2017-09-07T06:09:44.106Z,97453.22
2017-09-07T06:10:15.753Z,97448.43
2017-09-07T06:10:47.398Z,97456.12
2017-09-07T06:11:19.041Z,97449.69
2017-09-07T06:11:50.705Z,97452.67
2017-09-07T06:12:22.604Z,97452.62